Terminal Aerodrome Forecast
Issued by NWS Medford, OR

Home | Current Version | Previous Version | Text Only | Print | Product List | Glossary On
Versions: 1 2 3 4 5 6 7 8 9 10 11 12 13 14 15 16 17 18 19
000
FTUS46 KMFR 211735
TAFMFR
TAF
KMFR 211735Z 2118/2218 27005KT 6SM -RA BR BKN035 OVC050
      WS020/26035KT
     FM212200 31005KT P6SM -RA SCT007 OVC015 WS020/26035KT
     FM220400 VRB02KT 5SM -SHRA BR OVC007
     FM220900 00000KT 4SM BR VCSH OVC005
     FM221300 00000KT 1/2SM FG OVC002=

USA.gov is the U.S. government's official web portal to all federal, state and local government web resources and services.